createdAt,value
2019-05-20T00:00:32.601Z,12.41
2019-05-20T00:01:32.576Z,12.54
2019-05-20T00:02:32.560Z,12.54
2019-05-20T00:03:32.549Z,12.43
2019-05-20T00:04:32.536Z,12.29
2019-05-20T00:05:32.589Z,12.46
2019-05-20T00:06:32.511Z,12.36
2019-05-20T00:07:32.505Z,12.36
2019-05-20T00:08:32.492Z,12.36
2019-05-20T00:09:32.480Z,12.38
2019-05-20T00:10:32.491Z,12.36
2019-05-20T00:11:32.457Z,12.31
2019-05-20T00:12:32.451Z,12.31
2019-05-20T00:13:32.438Z,12.34
2019-05-20T00:14:32.421Z,12.29
2019-05-20T00:15:32.413Z,12.31
2019-05-20T00:16:32.416Z,12.29
2019-05-20T00:17:32.416Z,12.23
2019-05-20T00:18:32.379Z,12.22
2019-05-20T00:19:32.373Z,12.13
2019-05-20T00:20:32.376Z,12.11
2019-05-20T00:21:32.343Z,12.12
2019-05-20T00:22:32.344Z,12.07
2019-05-20T00:23:32.322Z,12.15
2019-05-20T00:24:32.314Z,12.12
2019-05-20T00:25:32.301Z,12.08
2019-05-20T00:26:32.304Z,12.11
2019-05-20T00:27:32.274Z,12.11
2019-05-20T00:28:32.266Z,12.12
2019-05-20T00:29:32.260Z,12.16
2019-05-20T00:30:32.252Z,12.07
2019-05-20T00:31:32.245Z,12.29
2019-05-20T00:32:41.035Z,12.26
2019-05-20T00:33:33.216Z,12.30
2019-05-20T00:34:35.271Z,12.26
2019-05-20T00:35:32.183Z,12.31
2019-05-20T00:36:32.176Z,12.29
2019-05-20T00:37:32.158Z,12.25
2019-05-20T00:38:32.160Z,12.25
2019-05-20T00:39:32.139Z,12.22
2019-05-20T00:40:32.127Z,12.23
2019-05-20T00:41:32.110Z,12.29
2019-05-20T00:42:32.100Z,12.18
2019-05-20T00:43:32.140Z,12.21
2019-05-20T00:44:32.087Z,12.22
2019-05-20T00:45:32.069Z,12.08
2019-05-20T00:46:32.064Z,12.22
2019-05-20T00:47:32.066Z,12.08
2019-05-20T00:48:32.035Z,12.11
2019-05-20T00:49:32.019Z,12.13
2019-05-20T00:50:32.011Z,12.05
2019-05-20T00:51:31.999Z,12.03
2019-05-20T00:52:32.007Z,11.94
2019-05-20T00:53:31.972Z,11.97
2019-05-20T00:54:31.965Z,12.03
2019-05-20T00:55:31.954Z,11.93
2019-05-20T00:56:31.945Z,11.96
2019-05-20T00:57:31.941Z,11.94
2019-05-20T00:58:31.916Z,11.93
2019-05-20T00:59:31.905Z,11.85
2019-05-20T01:00:31.893Z,11.90
2019-05-20T01:01:31.911Z,11.88
2019-05-20T01:02:31.888Z,11.81
2019-05-20T01:03:31.871Z,11.79
2019-05-20T01:04:31.854Z,11.87
2019-05-20T01:05:31.839Z,11.81
2019-05-20T01:06:31.826Z,11.78
2019-05-20T01:07:31.833Z,11.67
2019-05-20T01:08:31.815Z,11.74
2019-05-20T01:09:31.791Z,11.74
2019-05-20T01:10:31.777Z,11.69
2019-05-20T01:11:31.773Z,11.70
2019-05-20T01:12:31.756Z,11.69
2019-05-20T01:13:31.757Z,11.77
2019-05-20T01:14:31.733Z,11.75
2019-05-20T01:15:31.728Z,11.69
2019-05-20T01:16:31.711Z,11.70
2019-05-20T01:17:31.701Z,11.64
2019-05-20T01:18:31.699Z,11.72
2019-05-20T01:19:31.679Z,11.72
2019-05-20T01:20:31.673Z,11.66
2019-05-20T01:21:31.655Z,11.57
2019-05-20T01:22:31.643Z,11.64
2019-05-20T01:23:31.668Z,11.67
2019-05-20T01:24:31.619Z,11.57
2019-05-20T01:25:31.606Z,11.66
2019-05-20T01:26:31.594Z,11.60
2019-05-20T01:27:31.587Z,11.57
2019-05-20T01:28:31.574Z,11.48
2019-05-20T01:29:31.573Z,11.53
2019-05-20T01:30:31.552Z,11.49
2019-05-20T01:31:31.539Z,11.57
2019-05-20T01:32:31.530Z,11.57
2019-05-20T01:33:31.517Z,11.49
2019-05-20T01:34:31.522Z,11.45
2019-05-20T01:35:31.511Z,11.46
2019-05-20T01:36:31.491Z,11.48
2019-05-20T01:37:31.471Z,11.44
2019-05-20T01:38:31.459Z,11.41
2019-05-20T01:39:31.504Z,11.46
2019-05-20T01:40:31.447Z,11.48
2019-05-20T01:41:31.431Z,11.48
2019-05-20T01:42:31.413Z,11.46
2019-05-20T01:43:31.407Z,11.42
2019-05-20T01:44:31.392Z,11.36
2019-05-20T01:45:31.403Z,11.38
2019-05-20T01:46:31.374Z,11.39
2019-05-20T01:47:31.358Z,11.38
2019-05-20T01:48:31.347Z,11.38
2019-05-20T01:49:31.339Z,11.35
2019-05-20T01:50:31.329Z,11.31
2019-05-20T01:51:31.321Z,11.35
2019-05-20T01:52:31.304Z,11.33
2019-05-20T01:53:31.290Z,11.33
2019-05-20T01:54:31.285Z,11.30
2019-05-20T01:55:31.283Z,11.27
2019-05-20T01:56:31.255Z,11.27
2019-05-20T01:57:31.256Z,11.24
2019-05-20T01:58:31.240Z,11.39
2019-05-20T01:59:31.250Z,11.31
2019-05-20T02:00:31.227Z,11.42
2019-05-20T02:01:31.199Z,11.39
2019-05-20T02:02:31.190Z,11.42
2019-05-20T02:03:32.429Z,11.41
2019-05-20T02:04:31.173Z,11.39
2019-05-20T02:05:31.191Z,11.41
2019-05-20T02:06:31.148Z,11.33
2019-05-20T02:07:31.133Z,11.35
2019-05-20T02:08:31.121Z,11.27
2019-05-20T02:09:31.114Z,11.36
2019-05-20T02:10:31.097Z,11.28
2019-05-20T02:11:31.101Z,11.30
2019-05-20T02:12:31.078Z,11.23
2019-05-20T02:13:31.070Z,11.33
2019-05-20T02:14:31.056Z,11.23
2019-05-20T02:15:31.057Z,11.27
2019-05-20T02:16:31.091Z,11.24
2019-05-20T02:17:31.026Z,11.16
2019-05-20T02:18:31.011Z,11.23
2019-05-20T02:19:30.996Z,11.12
2019-05-20T02:20:30.984Z,11.19
2019-05-20T02:21:30.992Z,11.26
2019-05-20T02:22:30.967Z,11.13
2019-05-20T02:23:30.958Z,11.19
2019-05-20T02:24:30.940Z,11.17
2019-05-20T02:25:30.925Z,11.13
2019-05-20T02:26:30.945Z,11.11
2019-05-20T02:27:30.905Z,11.16
2019-05-20T02:28:30.893Z,11.11
2019-05-20T02:29:30.895Z,11.06
2019-05-20T02:30:30.871Z,11.05
2019-05-20T02:31:30.859Z,11.11
2019-05-20T02:32:30.874Z,11.09
2019-05-20T02:33:47.853Z,11.01
2019-05-20T02:34:31.824Z,11.05
2019-05-20T02:35:30.837Z,10.95
2019-05-20T02:36:30.814Z,11.06
2019-05-20T02:37:30.794Z,11.05
2019-05-20T02:38:30.777Z,11.02
2019-05-20T02:39:30.768Z,11.06
2019-05-20T02:40:30.761Z,11.06
2019-05-20T02:41:30.754Z,11.05
2019-05-20T02:42:30.750Z,11.01
2019-05-20T02:43:30.758Z,11.05
2019-05-20T02:44:30.712Z,11.03
2019-05-20T02:45:30.706Z,11.05
2019-05-20T02:46:30.689Z,10.98
2019-05-20T02:47:30.680Z,11.02
2019-05-20T02:48:30.665Z,11.02
2019-05-20T02:49:30.670Z,10.93
2019-05-20T02:50:30.653Z,10.99
2019-05-20T02:51:30.642Z,11.01
2019-05-20T02:52:30.637Z,10.98
2019-05-20T02:53:30.628Z,10.99
2019-05-20T02:54:30.598Z,11.03
2019-05-20T02:55:30.587Z,11.11
2019-05-20T02:56:30.589Z,11.05
2019-05-20T02:57:30.569Z,11.12
2019-05-20T02:58:30.581Z,11.16
2019-05-20T02:59:30.554Z,11.09
2019-05-20T03:00:30.529Z,11.31
2019-05-20T03:01:30.528Z,11.26
2019-05-20T03:02:30.513Z,11.28
2019-05-20T03:03:30.509Z,11.28
2019-05-20T03:04:30.490Z,11.21
2019-05-20T03:05:30.470Z,11.30
2019-05-20T03:06:30.470Z,11.30
2019-05-20T03:07:30.463Z,11.26
2019-05-20T03:08:30.470Z,11.26
2019-05-20T03:09:30.426Z,11.27
2019-05-20T03:10:30.413Z,11.33
2019-05-20T03:11:30.413Z,11.35
2019-05-20T03:12:30.395Z,11.38
2019-05-20T03:13:30.389Z,11.42
2019-05-20T03:14:30.390Z,11.42
2019-05-20T03:15:30.360Z,11.41
2019-05-20T03:16:30.343Z,11.38
2019-05-20T03:17:30.337Z,11.39
2019-05-20T03:18:30.354Z,11.44
2019-05-20T03:19:30.321Z,11.33
2019-05-20T03:20:30.298Z,11.46
2019-05-20T03:21:30.286Z,11.31
2019-05-20T03:22:30.280Z,11.28
2019-05-20T03:23:30.334Z,11.36
2019-05-20T03:24:30.267Z,11.30
2019-05-20T03:25:30.258Z,11.28
2019-05-20T03:26:30.262Z,11.30
2019-05-20T03:27:30.218Z,11.33
2019-05-20T03:28:30.216Z,11.42
2019-05-20T03:29:30.202Z,11.38
2019-05-20T03:30:30.196Z,11.33
2019-05-20T03:31:30.297Z,11.33
2019-05-20T03:32:30.160Z,11.38
2019-05-20T03:33:30.151Z,11.27
2019-05-20T03:34:45.979Z,11.33
2019-05-20T03:35:31.136Z,11.27
2019-05-20T03:36:30.147Z,11.35
2019-05-20T03:37:30.104Z,11.42
2019-05-20T03:38:30.092Z,11.35
2019-05-20T03:39:30.088Z,11.36
2019-05-20T03:40:30.071Z,11.38
2019-05-20T03:41:30.073Z,11.33
2019-05-20T03:42:30.063Z,11.30
2019-05-20T03:43:30.042Z,11.33
2019-05-20T03:44:30.025Z,11.26
2019-05-20T03:45:30.011Z,11.24
2019-05-20T03:46:30.006Z,11.31
2019-05-20T03:47:29.991Z,11.33
2019-05-20T03:48:29.992Z,11.38
2019-05-20T03:49:29.973Z,11.33
2019-05-20T03:50:29.955Z,11.33
2019-05-20T03:51:29.944Z,11.28
2019-05-20T03:52:29.950Z,11.27
2019-05-20T03:53:29.951Z,11.19
2019-05-20T03:54:29.907Z,11.16
2019-05-20T03:55:29.900Z,11.20
2019-05-20T03:56:29.889Z,11.17
2019-05-20T03:57:29.876Z,11.11
2019-05-20T03:58:29.863Z,11.19
2019-05-20T03:59:29.873Z,11.17
2019-05-20T04:00:29.841Z,11.12
2019-05-20T04:01:29.843Z,11.05
2019-05-20T04:02:29.834Z,11.05
2019-05-20T04:03:29.811Z,10.95
2019-05-20T04:04:29.799Z,11.08
2019-05-20T04:05:29.786Z,11.06
2019-05-20T04:06:29.777Z,11.08
2019-05-20T04:07:29.791Z,11.05
2019-05-20T04:08:29.748Z,10.94
2019-05-20T04:09:29.753Z,11.05
2019-05-20T04:10:29.730Z,11.08
2019-05-20T04:11:29.721Z,11.09
2019-05-20T04:12:29.706Z,11.19
2019-05-20T04:13:29.709Z,11.17
2019-05-20T04:14:29.690Z,11.17
2019-05-20T04:15:29.677Z,11.13
2019-05-20T04:16:29.662Z,11.12
2019-05-20T04:17:29.652Z,11.13
2019-05-20T04:18:29.658Z,11.19
2019-05-20T04:19:29.628Z,11.16
2019-05-20T04:20:29.618Z,11.27
2019-05-20T04:21:29.602Z,11.20
2019-05-20T04:22:29.591Z,11.33
2019-05-20T04:23:29.595Z,11.27
2019-05-20T04:24:29.575Z,11.33
2019-05-20T04:25:29.561Z,11.20
2019-05-20T04:26:29.549Z,11.23
2019-05-20T04:27:29.539Z,11.26
2019-05-20T04:28:29.538Z,11.24
2019-05-20T04:29:29.525Z,11.31
2019-05-20T04:30:29.514Z,11.38
2019-05-20T04:31:29.496Z,11.30
2019-05-20T04:32:29.482Z,11.42
2019-05-20T04:33:29.490Z,11.39
2019-05-20T04:34:29.482Z,11.42
2019-05-20T04:35:29.447Z,11.39
2019-05-20T04:36:29.438Z,11.42
2019-05-20T04:37:29.428Z,11.45
2019-05-20T04:38:29.431Z,11.46
2019-05-20T04:39:29.411Z,11.45
2019-05-20T04:40:29.436Z,11.44
2019-05-20T04:41:29.391Z,11.44
2019-05-20T04:42:29.383Z,11.45
2019-05-20T04:43:29.382Z,11.48
2019-05-20T04:44:29.356Z,11.51
2019-05-20T04:45:29.371Z,11.49
2019-05-20T04:46:29.329Z,11.46
2019-05-20T04:47:29.320Z,11.51
2019-05-20T04:48:29.316Z,11.53
2019-05-20T04:49:29.297Z,11.54
2019-05-20T04:50:29.286Z,11.53
2019-05-20T04:51:29.295Z,11.56
2019-05-20T04:52:29.261Z,11.53
2019-05-20T04:53:29.251Z,11.54
2019-05-20T04:54:29.250Z,11.51
2019-05-20T04:55:29.228Z,11.56
2019-05-20T04:56:29.547Z,11.53
2019-05-20T04:57:29.210Z,11.56
2019-05-20T04:58:29.193Z,11.46
2019-05-20T04:59:29.209Z,11.54
2019-05-20T05:00:29.176Z,11.59
2019-05-20T05:01:29.169Z,11.57
2019-05-20T05:02:29.152Z,11.54
2019-05-20T05:03:29.146Z,11.62
2019-05-20T05:04:29.138Z,11.51
2019-05-20T05:05:37.553Z,11.53
2019-05-20T05:06:30.102Z,11.60
2019-05-20T05:07:29.092Z,11.60
2019-05-20T05:08:29.087Z,11.64
2019-05-20T05:09:29.074Z,11.67
2019-05-20T05:10:29.062Z,11.60
2019-05-20T05:11:29.061Z,11.60
2019-05-20T05:12:29.036Z,11.57
2019-05-20T05:13:29.061Z,11.60
2019-05-20T05:14:29.016Z,11.63
2019-05-20T05:15:29.023Z,11.59
2019-05-20T05:16:28.991Z,11.60
2019-05-20T05:17:28.989Z,11.60
2019-05-20T05:18:28.976Z,11.57
2019-05-20T05:19:28.956Z,11.59
2019-05-20T05:20:28.965Z,11.59
2019-05-20T05:21:28.937Z,11.64
2019-05-20T05:22:28.926Z,11.63
2019-05-20T05:23:28.919Z,11.69
2019-05-20T05:24:28.902Z,11.64
2019-05-20T05:25:28.893Z,11.59
2019-05-20T05:26:28.899Z,11.67
2019-05-20T05:27:28.876Z,11.77
2019-05-20T05:28:28.865Z,11.74
2019-05-20T05:29:28.849Z,11.81
2019-05-20T05:30:28.837Z,11.77
2019-05-20T05:31:28.834Z,11.77
2019-05-20T05:32:28.812Z,11.74
2019-05-20T05:33:28.803Z,11.70
2019-05-20T05:34:28.793Z,11.72
2019-05-20T05:35:28.780Z,11.84
2019-05-20T05:36:28.790Z,11.84
2019-05-20T05:37:28.756Z,11.84
2019-05-20T05:38:28.744Z,11.85
2019-05-20T05:39:28.745Z,11.87
2019-05-20T05:40:28.725Z,11.85
2019-05-20T05:41:28.711Z,11.88
2019-05-20T05:42:28.714Z,11.88
2019-05-20T05:43:28.689Z,11.88
2019-05-20T05:44:28.680Z,11.97
2019-05-20T05:45:29.446Z,12.00
2019-05-20T05:46:28.662Z,11.98
2019-05-20T05:47:28.661Z,12.00
2019-05-20T05:48:28.636Z,12.00
2019-05-20T05:49:28.621Z,12.15
2019-05-20T05:50:28.631Z,12.08
2019-05-20T05:51:35.529Z,12.15
2019-05-20T05:52:28.619Z,12.16
2019-05-20T05:53:28.593Z,12.11
2019-05-20T05:54:28.567Z,12.13
2019-05-20T05:55:28.554Z,12.11
2019-05-20T05:56:28.558Z,12.22
2019-05-20T05:57:28.552Z,12.26
2019-05-20T05:58:28.531Z,12.29
2019-05-20T05:59:28.523Z,12.29
2019-05-20T06:00:28.506Z,12.29
2019-05-20T06:01:28.500Z,12.38
2019-05-20T06:02:28.483Z,12.40
2019-05-20T06:03:28.504Z,12.33
2019-05-20T06:04:28.458Z,12.40
2019-05-20T06:05:31.632Z,12.33
2019-05-20T06:06:28.435Z,12.38
2019-05-20T06:07:28.424Z,12.43
2019-05-20T06:08:28.429Z,12.46
2019-05-20T06:09:28.401Z,12.46
2019-05-20T06:10:28.400Z,12.31
2019-05-20T06:11:28.379Z,12.46
2019-05-20T06:12:28.383Z,12.37
2019-05-20T06:13:28.375Z,12.49
2019-05-20T06:14:28.362Z,12.52
2019-05-20T06:15:28.333Z,12.49
2019-05-20T06:16:36.606Z,12.54
2019-05-20T06:17:29.313Z,12.46
2019-05-20T06:18:28.319Z,12.54
2019-05-20T06:19:28.295Z,12.52
2019-05-20T06:20:28.313Z,12.55
2019-05-20T06:21:28.275Z,12.66
2019-05-20T06:22:28.259Z,12.61
2019-05-20T06:23:28.260Z,12.62
2019-05-20T06:24:28.276Z,12.66
2019-05-20T06:25:28.233Z,12.66
2019-05-20T06:26:28.225Z,12.73
2019-05-20T06:27:28.218Z,12.73
2019-05-20T06:28:28.189Z,12.70
2019-05-20T06:29:28.180Z,12.81
2019-05-20T06:30:28.182Z,12.79
2019-05-20T06:31:28.171Z,12.84
2019-05-20T06:32:28.145Z,12.84
2019-05-20T06:33:28.141Z,12.76
2019-05-20T06:34:28.131Z,12.89
2019-05-20T06:35:28.137Z,12.95
2019-05-20T06:36:28.102Z,12.99
2019-05-20T06:37:28.092Z,12.94
2019-05-20T06:38:28.080Z,12.89
2019-05-20T06:39:28.064Z,12.94
2019-05-20T06:40:28.064Z,12.96
2019-05-20T06:41:28.060Z,13.03
2019-05-20T06:42:28.030Z,13.04
2019-05-20T06:43:28.033Z,12.98
2019-05-20T06:44:28.023Z,13.07
2019-05-20T06:45:28.020Z,13.09
2019-05-20T06:46:28.000Z,13.10
2019-05-20T06:47:28.000Z,13.03
2019-05-20T06:48:27.968Z,13.12
2019-05-20T06:49:27.956Z,13.10
2019-05-20T06:50:29.770Z,13.16
2019-05-20T06:51:27.945Z,13.19
2019-05-20T06:52:35.849Z,13.27
2019-05-20T06:53:28.907Z,13.21
2019-05-20T06:54:27.922Z,13.27
2019-05-20T06:55:27.889Z,13.25
2019-05-20T06:56:27.893Z,13.35
2019-05-20T06:57:27.870Z,13.29
2019-05-20T06:58:27.852Z,13.22
2019-05-20T06:59:27.838Z,13.36
2019-05-20T07:00:27.831Z,13.32
2019-05-20T07:01:27.820Z,13.43
2019-05-20T07:02:27.818Z,13.32
2019-05-20T07:03:27.797Z,13.44
2019-05-20T07:04:27.785Z,13.39
2019-05-20T07:05:27.778Z,13.44
2019-05-20T07:06:44.837Z,13.32
2019-05-20T07:07:28.761Z,13.47
2019-05-20T07:08:27.741Z,13.50
2019-05-20T07:09:27.741Z,13.44
2019-05-20T07:10:27.723Z,13.38
2019-05-20T07:11:27.716Z,13.46
2019-05-20T07:12:40.585Z,13.47
2019-05-20T07:13:28.707Z,13.46
2019-05-20T07:14:27.671Z,13.47
2019-05-20T07:15:27.661Z,13.44
2019-05-20T07:16:27.685Z,13.48
2019-05-20T07:17:27.639Z,13.55
2019-05-20T07:18:27.681Z,13.48
2019-05-20T07:19:27.626Z,13.51
2019-05-20T07:20:27.608Z,13.55
2019-05-20T07:21:27.591Z,13.50
2019-05-20T07:22:27.596Z,13.57
2019-05-20T07:23:27.569Z,13.62
2019-05-20T07:24:27.573Z,13.63
2019-05-20T07:25:27.623Z,13.59
2019-05-20T07:26:27.534Z,13.57
2019-05-20T07:27:27.542Z,13.62
2019-05-20T07:28:27.515Z,13.62
2019-05-20T07:29:27.511Z,13.61
2019-05-20T07:30:27.495Z,13.69
2019-05-20T07:31:27.482Z,13.69
2019-05-20T07:32:27.484Z,13.69
2019-05-20T07:33:27.461Z,13.68
2019-05-20T07:34:27.479Z,13.75
2019-05-20T07:35:30.780Z,13.71
2019-05-20T07:36:27.426Z,13.75
2019-05-20T07:37:27.456Z,13.84
2019-05-20T07:38:27.413Z,13.73
2019-05-20T07:39:27.394Z,13.72
2019-05-20T07:40:27.413Z,13.84
2019-05-20T07:41:27.393Z,13.71
2019-05-20T07:42:27.368Z,13.76
2019-05-20T07:43:27.363Z,13.86
2019-05-20T07:44:27.334Z,13.84
2019-05-20T07:45:27.335Z,13.86
2019-05-20T07:46:27.312Z,13.84
2019-05-20T07:47:27.302Z,13.91
2019-05-20T07:48:27.569Z,13.96
2019-05-20T07:49:27.285Z,13.90
2019-05-20T07:50:27.269Z,13.88
2019-05-20T07:51:27.257Z,13.93
2019-05-20T07:52:27.251Z,14.02
2019-05-20T07:53:27.270Z,13.94
2019-05-20T07:54:27.226Z,13.96
2019-05-20T07:55:27.230Z,13.94
2019-05-20T07:56:27.206Z,13.93
2019-05-20T07:57:27.191Z,13.91
2019-05-20T07:58:27.188Z,13.94
2019-05-20T07:59:27.185Z,14.01
2019-05-20T08:00:27.170Z,13.98
2019-05-20T08:01:27.149Z,13.98
2019-05-20T08:02:27.143Z,13.99
2019-05-20T08:03:27.125Z,13.99
2019-05-20T08:04:27.159Z,14.01
2019-05-20T08:05:27.111Z,14.01
2019-05-20T08:06:27.096Z,13.98
2019-05-20T08:07:41.384Z,14.04
2019-05-20T08:08:28.068Z,14.01
2019-05-20T08:09:27.059Z,13.96
2019-05-20T08:10:27.074Z,13.99
2019-05-20T08:11:27.037Z,14.02
2019-05-20T08:12:27.033Z,13.99
2019-05-20T08:13:27.014Z,14.01
2019-05-20T08:14:27.004Z,13.96
2019-05-20T08:15:26.993Z,14.09
2019-05-20T08:16:26.996Z,14.06
2019-05-20T08:17:26.972Z,14.12
2019-05-20T08:18:26.971Z,14.09
2019-05-20T08:19:26.959Z,14.09
2019-05-20T08:20:26.945Z,14.05
2019-05-20T08:21:26.957Z,14.19
2019-05-20T08:22:26.914Z,14.13
2019-05-20T08:23:26.908Z,14.17
2019-05-20T08:24:26.890Z,14.19
2019-05-20T08:25:26.895Z,14.13
2019-05-20T08:26:26.981Z,14.21
2019-05-20T08:27:26.871Z,14.23
2019-05-20T08:28:26.848Z,14.12
2019-05-20T08:29:26.837Z,14.17
2019-05-20T08:30:26.843Z,14.23
2019-05-20T08:31:26.831Z,14.21
2019-05-20T08:32:26.842Z,14.21
2019-05-20T08:33:26.793Z,14.16
2019-05-20T08:34:26.778Z,14.30
2019-05-20T08:35:26.795Z,14.29
2019-05-20T08:36:26.762Z,14.31
2019-05-20T08:37:42.012Z,14.29
2019-05-20T08:38:27.738Z,14.29
2019-05-20T08:39:26.729Z,14.30
2019-05-20T08:40:26.723Z,14.41
2019-05-20T08:41:26.720Z,14.36
2019-05-20T08:42:26.691Z,14.42
2019-05-20T08:43:26.681Z,14.39
2019-05-20T08:44:26.668Z,14.31
2019-05-20T08:45:26.660Z,14.42
2019-05-20T08:46:26.665Z,14.42
2019-05-20T08:47:26.639Z,14.44
2019-05-20T08:48:26.626Z,14.49
2019-05-20T08:49:26.719Z,14.46
2019-05-20T08:50:26.604Z,14.44
2019-05-20T08:51:26.631Z,14.56
2019-05-20T08:52:26.583Z,14.59
2019-05-20T08:53:26.590Z,14.57
2019-05-20T08:54:26.575Z,14.53
2019-05-20T08:55:26.551Z,14.59
2019-05-20T08:56:26.539Z,14.53
2019-05-20T08:57:26.535Z,14.54
2019-05-20T08:58:26.525Z,14.52
2019-05-20T08:59:26.511Z,14.56
2019-05-20T09:00:26.624Z,14.45
2019-05-20T09:01:26.484Z,14.56
2019-05-20T09:02:26.469Z,14.48
2019-05-20T09:03:30.182Z,14.52
2019-05-20T09:04:26.447Z,14.49
2019-05-20T09:05:28.368Z,14.57
2019-05-20T09:06:26.469Z,14.57
2019-05-20T09:07:26.427Z,14.54
2019-05-20T09:08:26.405Z,14.61
2019-05-20T09:09:26.502Z,14.59
2019-05-20T09:10:26.380Z,14.60
2019-05-20T09:11:26.372Z,14.71
2019-05-20T09:12:26.370Z,14.64
2019-05-20T09:13:26.711Z,14.67
2019-05-20T09:14:26.336Z,14.66
2019-05-20T09:15:26.320Z,14.79
2019-05-20T09:16:26.345Z,14.69
2019-05-20T09:17:26.300Z,14.74
2019-05-20T09:18:26.304Z,14.80
2019-05-20T09:19:26.298Z,14.75
2019-05-20T09:20:26.280Z,14.78
2019-05-20T09:21:26.276Z,14.85
2019-05-20T09:22:26.263Z,14.87
2019-05-20T09:23:26.241Z,14.90
2019-05-20T09:24:26.231Z,14.91
2019-05-20T09:25:26.218Z,14.85
2019-05-20T09:26:26.208Z,14.97
2019-05-20T09:27:26.305Z,14.95
2019-05-20T09:28:26.181Z,14.95
2019-05-20T09:29:26.238Z,15.01
2019-05-20T09:30:26.162Z,14.98
2019-05-20T09:31:26.148Z,15.18
2019-05-20T09:32:26.153Z,15.07
2019-05-20T09:33:26.128Z,15.15
2019-05-20T09:34:27.036Z,15.13
2019-05-20T09:35:26.140Z,15.16
2019-05-20T09:36:26.185Z,15.18
2019-05-20T09:37:26.081Z,15.18
2019-05-20T09:38:26.093Z,15.19
2019-05-20T09:39:26.066Z,15.25
2019-05-20T09:40:26.058Z,15.33
2019-05-20T09:41:26.046Z,15.34
2019-05-20T09:42:26.037Z,15.31
2019-05-20T09:43:26.018Z,15.35
2019-05-20T09:44:26.038Z,15.40
2019-05-20T09:45:25.992Z,15.40
2019-05-20T09:46:25.983Z,15.41
2019-05-20T09:47:25.992Z,15.48
2019-05-20T09:48:25.964Z,15.51
2019-05-20T09:49:26.113Z,15.51
2019-05-20T09:50:25.994Z,15.53
2019-05-20T09:51:25.928Z,15.64
2019-05-20T09:52:25.911Z,15.52
2019-05-20T09:53:25.901Z,15.53
2019-05-20T09:54:25.902Z,15.51
2019-05-20T09:55:25.883Z,15.59
2019-05-20T09:56:25.869Z,15.60
2019-05-20T09:57:25.857Z,15.60
2019-05-20T09:58:46.859Z,15.67
2019-05-20T09:59:40.522Z,15.77
2019-05-20T10:00:26.825Z,15.73
2019-05-20T10:01:25.826Z,15.84
2019-05-20T10:02:34.947Z,15.77
2019-05-20T10:03:26.785Z,15.84
2019-05-20T10:04:25.786Z,15.78
2019-05-20T10:05:25.769Z,15.85
2019-05-20T10:06:25.765Z,15.92
2019-05-20T10:07:25.749Z,15.89
2019-05-20T10:08:37.511Z,15.95
2019-05-20T10:09:26.743Z,15.89
2019-05-20T10:10:25.718Z,15.95
2019-05-20T10:11:25.697Z,15.96
2019-05-20T10:12:44.268Z,15.86
2019-05-20T10:13:26.687Z,15.93
2019-05-20T10:14:25.766Z,15.91
2019-05-20T10:15:25.659Z,15.88
2019-05-20T10:16:25.655Z,15.89
2019-05-20T10:17:25.645Z,15.98
2019-05-20T10:18:36.767Z,16.06
2019-05-20T10:19:26.615Z,16.04
2019-05-20T10:20:25.605Z,16.07
2019-05-20T10:21:25.587Z,16.14
2019-05-20T10:22:25.576Z,16.16
2019-05-20T10:23:25.592Z,16.11
2019-05-20T10:24:25.584Z,16.22
2019-05-20T10:25:25.545Z,16.25
2019-05-20T10:26:25.531Z,16.27
2019-05-20T10:27:25.519Z,16.30
2019-05-20T10:28:25.527Z,16.33
2019-05-20T10:29:25.499Z,16.25
2019-05-20T10:30:25.494Z,16.18
2019-05-20T10:31:25.489Z,16.14
2019-05-20T10:32:25.466Z,16.22
2019-05-20T10:33:25.468Z,16.23
2019-05-20T10:34:25.456Z,16.25
2019-05-20T10:35:25.432Z,16.26
2019-05-20T10:36:25.431Z,16.32
2019-05-20T10:37:25.427Z,16.33
2019-05-20T10:38:25.422Z,16.34
2019-05-20T10:39:25.390Z,16.40
2019-05-20T10:40:25.377Z,16.26
2019-05-20T10:41:25.379Z,16.17
2019-05-20T10:42:25.358Z,16.22
2019-05-20T10:43:25.342Z,16.16
2019-05-20T10:44:25.356Z,16.26
2019-05-20T10:45:25.324Z,16.14
2019-05-20T10:46:25.314Z,16.11
2019-05-20T10:47:25.309Z,16.01
2019-05-20T10:48:25.286Z,16.08
2019-05-20T10:49:25.288Z,16.01
2019-05-20T10:50:25.279Z,16.07
2019-05-20T10:51:25.252Z,16.04
2019-05-20T10:52:25.249Z,16.04
2019-05-20T10:53:28.263Z,16.07
2019-05-20T10:54:25.237Z,16.06
2019-05-20T10:55:25.254Z,15.99
2019-05-20T10:56:25.227Z,16.04
2019-05-20T10:57:25.206Z,16.04
2019-05-20T10:58:25.194Z,16.07
2019-05-20T10:59:25.166Z,16.07
2019-05-20T11:00:25.159Z,16.03
2019-05-20T11:01:25.152Z,15.99
2019-05-20T11:02:25.136Z,16.04
2019-05-20T11:03:25.137Z,15.95
2019-05-20T11:04:25.127Z,15.88
2019-05-20T11:05:25.125Z,15.99
2019-05-20T11:06:25.084Z,15.96
2019-05-20T11:07:25.079Z,15.93
2019-05-20T11:08:25.061Z,15.92
2019-05-20T11:09:25.047Z,15.95
2019-05-20T11:10:25.076Z,15.99
2019-05-20T11:11:25.034Z,15.98
2019-05-20T11:12:25.015Z,16.11
2019-05-20T11:13:25.010Z,16.04
2019-05-20T11:14:24.993Z,16.04
2019-05-20T11:15:24.994Z,16.07
2019-05-20T11:16:24.973Z,16.06
2019-05-20T11:17:24.956Z,16.01
2019-05-20T11:18:24.943Z,16.03
2019-05-20T11:19:24.936Z,16.10
2019-05-20T11:20:24.954Z,16.06
2019-05-20T11:21:24.921Z,16.04
2019-05-20T11:22:24.935Z,16.13
2019-05-20T11:23:24.892Z,16.26
2019-05-20T11:24:24.886Z,16.17
2019-05-20T11:25:24.875Z,16.23
2019-05-20T11:26:24.865Z,16.22
2019-05-20T11:27:24.847Z,16.25
2019-05-20T11:28:24.835Z,16.26
2019-05-20T11:29:24.827Z,16.23
2019-05-20T11:30:24.809Z,16.32
2019-05-20T11:31:24.819Z,16.26
2019-05-20T11:32:24.795Z,16.33
2019-05-20T11:33:24.779Z,16.29
2019-05-20T11:34:24.780Z,16.25
2019-05-20T11:35:24.759Z,16.25
2019-05-20T11:36:24.895Z,16.30
2019-05-20T11:37:24.732Z,16.30
2019-05-20T11:38:24.731Z,16.32
2019-05-20T11:39:33.397Z,16.30
2019-05-20T11:40:25.706Z,16.34
2019-05-20T11:41:51.094Z,16.34
2019-05-20T11:42:25.679Z,16.33
2019-05-20T11:43:24.682Z,16.34
2019-05-20T11:44:24.658Z,16.45
2019-05-20T11:45:24.656Z,16.47
2019-05-20T11:46:24.658Z,16.36
2019-05-20T11:47:24.626Z,16.40
2019-05-20T11:48:24.624Z,16.41
2019-05-20T11:49:28.810Z,16.54
2019-05-20T11:50:24.590Z,16.51
2019-05-20T11:51:24.589Z,16.45
2019-05-20T11:52:24.579Z,16.51
2019-05-20T11:53:24.570Z,16.52
2019-05-20T11:54:24.574Z,16.48
2019-05-20T11:55:24.542Z,16.51
2019-05-20T11:56:24.608Z,16.48
2019-05-20T11:57:24.556Z,16.48
2019-05-20T11:58:24.506Z,16.59
2019-05-20T11:59:24.514Z,16.55
2019-05-20T12:00:24.499Z,16.55
2019-05-20T12:01:24.492Z,16.55
2019-05-20T12:02:24.508Z,16.55
2019-05-20T12:03:24.495Z,16.51
2019-05-20T12:04:24.449Z,16.52
2019-05-20T12:05:24.445Z,16.44
2019-05-20T12:06:24.463Z,16.50
2019-05-20T12:07:24.467Z,16.57
2019-05-20T12:08:24.411Z,16.48
2019-05-20T12:09:24.424Z,16.50
2019-05-20T12:10:24.374Z,16.54
2019-05-20T12:11:24.370Z,16.47
2019-05-20T12:12:24.372Z,16.41
2019-05-20T12:13:24.337Z,16.47
2019-05-20T12:14:24.355Z,16.59
2019-05-20T12:15:24.311Z,16.62
2019-05-20T12:16:24.329Z,16.72
2019-05-20T12:17:24.310Z,16.70
2019-05-20T12:18:24.277Z,16.70
2019-05-20T12:19:24.269Z,16.72
2019-05-20T12:20:24.261Z,16.73
2019-05-20T12:21:24.244Z,16.81
2019-05-20T12:22:24.249Z,16.85
2019-05-20T12:23:24.233Z,16.90
2019-05-20T12:24:24.213Z,16.82
2019-05-20T12:25:24.210Z,16.85
2019-05-20T12:26:24.203Z,16.84
2019-05-20T12:27:24.179Z,16.82
2019-05-20T12:28:24.183Z,16.80
2019-05-20T12:29:24.153Z,16.85
2019-05-20T12:30:24.174Z,16.72
2019-05-20T12:31:24.145Z,16.69
2019-05-20T12:32:24.147Z,16.77
2019-05-20T12:33:24.109Z,16.77
2019-05-20T12:34:24.098Z,16.78
2019-05-20T12:35:24.112Z,16.77
2019-05-20T12:36:24.078Z,16.78
2019-05-20T12:37:24.084Z,16.78
2019-05-20T12:38:24.073Z,16.82
2019-05-20T12:39:24.066Z,16.91
2019-05-20T12:40:24.048Z,16.87
2019-05-20T12:41:24.040Z,16.85
2019-05-20T12:42:24.018Z,16.90
2019-05-20T12:43:24.010Z,16.99
2019-05-20T12:44:23.986Z,16.84
2019-05-20T12:45:24.006Z,16.90
2019-05-20T12:46:23.969Z,17.07
2019-05-20T12:47:23.960Z,17.02
2019-05-20T12:48:23.947Z,17.10
2019-05-20T12:49:24.088Z,17.14
2019-05-20T12:50:23.924Z,17.12
2019-05-20T12:51:23.925Z,17.17
2019-05-20T12:52:23.912Z,17.10